createdAt,value
2023-05-08T00:01:06.370Z,1.70
2023-05-08T00:03:33.249Z,2.50
2023-05-08T00:06:00.212Z,1.00
2023-05-08T00:08:27.001Z,1.60
2023-05-08T00:10:53.782Z,1.80
2023-05-08T00:13:20.857Z,2.40
2023-05-08T00:15:47.795Z,2.20
2023-05-08T00:18:14.534Z,2.40
2023-05-08T00:20:41.803Z,1.60
2023-05-08T00:23:08.617Z,2.10
2023-05-08T00:25:35.335Z,1.40
2023-05-08T00:28:02.042Z,1.70
2023-05-08T00:30:29.097Z,1.30
2023-05-08T00:32:55.894Z,2.60
2023-05-08T00:35:22.829Z,1.80
2023-05-08T00:37:49.552Z,1.20
2023-05-08T00:40:16.532Z,2.20
2023-05-08T00:42:43.310Z,2.30
2023-05-08T00:45:10.528Z,2.80
2023-05-08T00:47:37.761Z,1.10
2023-05-08T00:50:05.419Z,1.40
2023-05-08T00:52:32.832Z,1.90
2023-05-08T00:55:01.466Z,1.30
2023-05-08T00:57:29.813Z,1.90
2023-05-08T00:59:56.655Z,1.50
2023-05-08T01:02:23.479Z,1.20
2023-05-08T01:04:50.447Z,1.50
2023-05-08T01:07:17.755Z,1.10
2023-05-08T01:09:44.774Z,1.20
2023-05-08T01:12:28.789Z,1.20
2023-05-08T01:15:06.466Z,1.50
2023-05-08T01:17:39.201Z,1.30
2023-05-08T01:20:27.143Z,1.00
2023-05-08T01:22:58.794Z,1.20
2023-05-08T01:25:37.655Z,1.40
2023-05-08T01:28:26.289Z,1.10
2023-05-08T01:31:15.709Z,2.00
2023-05-08T01:33:51.868Z,2.30
2023-05-08T01:38:53.619Z,1.50
2023-05-08T01:41:25.987Z,0.80
2023-05-08T01:43:55.555Z,2.40
2023-05-08T01:46:27.185Z,2.50
2023-05-08T01:49:07.085Z,1.20
2023-05-08T01:51:38.348Z,2.00
2023-05-08T01:54:09.462Z,1.20
2023-05-08T01:56:38.063Z,3.50
2023-05-08T01:59:04.789Z,2.00
2023-05-08T02:01:32.331Z,1.20
2023-05-08T02:03:59.148Z,1.40
2023-05-08T02:06:26.859Z,1.10
2023-05-08T02:08:53.595Z,1.10
2023-05-08T02:11:20.343Z,2.40
2023-05-08T02:13:47.753Z,0.90
2023-05-08T02:16:14.651Z,2.30
2023-05-08T02:18:44.644Z,1.70
2023-05-08T02:21:11.373Z,3.70
2023-05-08T02:23:38.129Z,1.40
2023-05-08T02:26:05.105Z,1.20
2023-05-08T02:28:31.854Z,1.10
2023-05-08T02:30:58.681Z,1.00
2023-05-08T02:33:25.533Z,1.40
2023-05-08T02:35:52.320Z,0.90
2023-05-08T02:38:20.741Z,1.30
2023-05-08T02:40:49.754Z,1.50
2023-05-08T02:43:16.591Z,1.20
2023-05-08T02:45:50.456Z,1.60
2023-05-08T02:48:32.157Z,1.70
2023-05-08T02:51:02.574Z,1.20
2023-05-08T02:53:33.268Z,1.20
2023-05-08T02:56:11.312Z,1.10
2023-05-08T02:58:42.870Z,1.30
2023-05-08T03:01:24.533Z,2.30
2023-05-08T03:04:00.642Z,1.30
2023-05-08T03:06:27.556Z,1.50
2023-05-08T03:08:54.425Z,2.30
2023-05-08T03:11:26.030Z,1.80
2023-05-08T03:13:52.930Z,2.30
2023-05-08T03:16:23.157Z,1.80
2023-05-08T03:18:58.403Z,1.40
2023-05-08T03:21:28.247Z,1.60
2023-05-08T03:23:54.946Z,1.40
2023-05-08T03:26:22.273Z,2.40
2023-05-08T03:28:52.550Z,1.70
2023-05-08T03:31:21.594Z,2.10
2023-05-08T03:33:48.983Z,3.80
2023-05-08T03:36:16.135Z,2.60
2023-05-08T03:38:42.878Z,2.60
2023-05-08T03:41:09.716Z,1.40
2023-05-08T03:43:36.879Z,2.80
2023-05-08T03:46:09.690Z,2.60
2023-05-08T03:48:36.950Z,2.90
2023-05-08T03:51:04.185Z,1.70
2023-05-08T03:53:32.634Z,2.30
2023-05-08T03:56:00.228Z,2.10
2023-05-08T03:58:38.976Z,8.60
2023-05-08T04:01:13.752Z,2.30
2023-05-08T04:03:50.751Z,2.90
2023-05-08T04:06:22.543Z,2.70
2023-05-08T04:08:50.771Z,1.90
2023-05-08T04:11:31.080Z,1.90
2023-05-08T04:14:00.928Z,1.80
2023-05-08T04:16:28.625Z,2.70
2023-05-08T04:19:00.036Z,3.00
2023-05-08T04:21:26.883Z,1.80
2023-05-08T04:23:54.366Z,1.80
2023-05-08T04:26:22.456Z,1.80
2023-05-08T04:28:50.253Z,1.70
2023-05-08T04:31:17.161Z,2.50
2023-05-08T04:33:44.871Z,2.20
2023-05-08T04:36:13.153Z,2.70
2023-05-08T04:38:40.786Z,3.50
2023-05-08T04:41:08.142Z,2.20
2023-05-08T04:43:35.906Z,3.30
2023-05-08T04:46:03.145Z,3.50
2023-05-08T04:48:31.891Z,2.40
2023-05-08T04:50:58.732Z,2.30
2023-05-08T04:53:25.589Z,3.00
2023-05-08T04:55:52.868Z,4.30
2023-05-08T04:58:19.724Z,1.70
2023-05-08T05:00:46.407Z,2.40
2023-05-08T05:03:13.299Z,3.40
2023-05-08T05:05:40.834Z,2.20
2023-05-08T05:08:07.649Z,1.80
2023-05-08T05:10:34.731Z,2.20
2023-05-08T05:13:01.652Z,1.50
2023-05-08T05:15:28.488Z,1.60
2023-05-08T05:17:55.409Z,2.30
2023-05-08T05:20:22.328Z,1.80
2023-05-08T05:22:49.287Z,2.00
2023-05-08T05:25:16.274Z,2.80
2023-05-08T05:27:43.291Z,2.30
2023-05-08T05:30:10.823Z,2.20
2023-05-08T05:32:37.941Z,3.50
2023-05-08T05:35:05.397Z,1.60
2023-05-08T05:37:32.301Z,2.60
2023-05-08T05:39:59.066Z,1.70
2023-05-08T05:42:26.027Z,2.20
2023-05-08T05:44:54.350Z,1.30
2023-05-08T05:47:21.513Z,4.30
2023-05-08T05:49:48.655Z,1.60
2023-05-08T05:52:15.505Z,4.60
2023-05-08T05:54:42.801Z,3.20
2023-05-08T05:57:09.769Z,2.20
2023-05-08T05:59:37.548Z,3.50
2023-05-08T06:02:04.518Z,2.10
2023-05-08T06:04:31.655Z,3.50
2023-05-08T06:06:58.520Z,6.10
2023-05-08T06:09:25.481Z,2.30
2023-05-08T06:11:52.296Z,1.90
2023-05-08T06:14:19.250Z,1.90
2023-05-08T06:16:46.123Z,2.00
2023-05-08T06:19:12.964Z,1.80
2023-05-08T06:21:39.923Z,1.80
2023-05-08T06:24:07.891Z,3.10
2023-05-08T06:26:34.656Z,1.80
2023-05-08T06:29:01.481Z,1.90
2023-05-08T06:31:28.356Z,1.90
2023-05-08T06:33:55.150Z,3.10
2023-05-08T06:36:22.041Z,2.10
2023-05-08T06:38:48.807Z,1.90
2023-05-08T06:41:15.591Z,2.10
2023-05-08T06:43:42.298Z,2.90
2023-05-08T06:46:09.184Z,3.00
2023-05-08T06:48:36.095Z,3.30
2023-05-08T06:51:03.694Z,1.80
2023-05-08T06:53:30.985Z,4.80
2023-05-08T06:56:00.636Z,2.30
2023-05-08T06:58:27.783Z,2.00
2023-05-08T07:00:54.518Z,1.80
2023-05-08T07:03:21.566Z,3.00
2023-05-08T07:05:48.657Z,2.70
2023-05-08T07:08:15.416Z,4.90
2023-05-08T07:10:42.135Z,3.00
2023-05-08T07:13:08.994Z,2.70
2023-05-08T07:15:35.810Z,3.30
2023-05-08T07:18:02.607Z,2.50
2023-05-08T07:20:29.651Z,5.80
2023-05-08T07:22:56.556Z,5.10
2023-05-08T07:25:23.392Z,4.40
2023-05-08T07:27:50.157Z,2.80
2023-05-08T07:30:16.958Z,3.50
2023-05-08T07:32:43.792Z,2.20
2023-05-08T07:35:12.784Z,7.10
2023-05-08T07:37:40.344Z,2.10
2023-05-08T07:40:07.772Z,2.30
2023-05-08T07:42:41.478Z,2.10
2023-05-08T07:45:09.449Z,4.30
2023-05-08T07:47:36.396Z,2.20
2023-05-08T07:50:03.252Z,3.00
2023-05-08T07:52:29.998Z,4.40
2023-05-08T07:54:56.778Z,3.10
2023-05-08T07:57:23.809Z,2.70
2023-05-08T07:59:50.691Z,7.00
2023-05-08T08:02:17.450Z,4.00
2023-05-08T08:04:44.184Z,3.60
2023-05-08T08:07:11.047Z,6.10
2023-05-08T08:09:37.920Z,3.40
2023-05-08T08:12:04.699Z,2.40
2023-05-08T08:14:31.496Z,2.90
2023-05-08T08:16:58.523Z,3.50
2023-05-08T08:19:25.245Z,1.70
2023-05-08T08:21:52.362Z,1.70
2023-05-08T08:24:19.070Z,1.90
2023-05-08T08:26:45.944Z,1.90
2023-05-08T08:29:13.096Z,3.20
2023-05-08T08:31:39.898Z,1.80
2023-05-08T08:34:06.715Z,1.80
2023-05-08T08:36:33.609Z,1.70
2023-05-08T08:39:00.804Z,2.30
2023-05-08T08:41:28.100Z,1.90
2023-05-08T08:43:55.199Z,1.80
2023-05-08T08:46:24.781Z,3.30
2023-05-08T08:48:56.465Z,2.30
2023-05-08T08:51:32.261Z,1.80
2023-05-08T08:54:08.090Z,2.90
2023-05-08T08:56:34.843Z,1.60
2023-05-08T08:59:01.984Z,1.80
2023-05-08T09:01:31.729Z,2.20
2023-05-08T09:03:59.672Z,2.50
2023-05-08T09:06:27.734Z,5.50
2023-05-08T09:08:56.834Z,1.70
2023-05-08T09:11:24.440Z,1.60
2023-05-08T09:13:51.705Z,2.60
2023-05-08T09:16:18.683Z,3.20
2023-05-08T09:18:45.764Z,3.30
2023-05-08T09:21:12.930Z,1.80
2023-05-08T09:23:56.031Z,1.60
2023-05-08T09:26:36.111Z,1.80
2023-05-08T09:29:19.152Z,2.40
2023-05-08T09:31:49.685Z,1.50
2023-05-08T09:34:42.834Z,2.20
2023-05-08T09:37:09.539Z,2.30
2023-05-08T09:39:36.368Z,4.50
2023-05-08T09:42:06.547Z,6.00
2023-05-08T09:44:48.392Z,4.90
2023-05-08T09:47:19.923Z,1.60
2023-05-08T09:50:03.588Z,3.00
2023-05-08T09:52:30.993Z,1.60
2023-05-08T09:55:04.514Z,1.50
2023-05-08T09:57:33.133Z,1.60
2023-05-08T10:00:13.022Z,1.50
2023-05-08T10:02:41.424Z,3.80
2023-05-08T10:05:31.791Z,1.90
2023-05-08T10:07:59.388Z,1.70
2023-05-08T10:10:27.511Z,3.00
2023-05-08T10:12:54.971Z,9.00
2023-05-08T10:15:33.676Z,3.70
2023-05-08T10:18:06.218Z,3.00
2023-05-08T10:20:34.108Z,1.60
2023-05-08T10:23:01.176Z,1.90
2023-05-08T10:25:32.315Z,1.40
2023-05-08T10:28:27.020Z,2.50
2023-05-08T10:30:53.800Z,3.10
2023-05-08T10:33:21.184Z,3.80
2023-05-08T10:35:48.127Z,1.60
2023-05-08T10:38:15.134Z,1.70
2023-05-08T10:40:41.917Z,2.80
2023-05-08T10:43:09.309Z,1.90
2023-05-08T10:45:36.111Z,2.50
2023-05-08T10:48:29.109Z,2.60
2023-05-08T10:51:20.257Z,1.40
2023-05-08T10:53:59.596Z,1.50
2023-05-08T10:56:29.529Z,1.90
2023-05-08T10:58:57.684Z,2.70
2023-05-08T11:01:25.442Z,2.60
2023-05-08T11:03:52.562Z,1.80
2023-05-08T11:06:42.124Z,1.90
2023-05-08T11:09:09.098Z,1.50
2023-05-08T11:11:38.577Z,2.10
2023-05-08T11:14:08.479Z,1.20
2023-05-08T11:16:53.706Z,1.70
2023-05-08T11:19:22.036Z,1.20
2023-05-08T11:22:21.875Z,3.10
2023-05-08T11:24:58.918Z,1.70
2023-05-08T11:27:33.325Z,2.40
2023-05-08T11:30:22.940Z,3.10
2023-05-08T11:33:22.612Z,4.10
2023-05-08T11:36:13.470Z,2.40
2023-05-08T11:38:41.079Z,3.70
2023-05-08T11:41:25.974Z,2.30
2023-05-08T11:44:05.198Z,1.80
2023-05-08T11:46:36.169Z,2.90
2023-05-08T11:49:02.941Z,3.60
2023-05-08T11:51:33.292Z,4.90
2023-05-08T11:54:00.515Z,4.10
2023-05-08T11:56:27.279Z,1.50
2023-05-08T11:59:04.625Z,4.60
2023-05-08T12:01:32.394Z,1.60
2023-05-08T12:04:02.588Z,5.40
2023-05-08T12:06:31.904Z,2.60
2023-05-08T12:08:59.830Z,3.20
2023-05-08T12:11:26.633Z,4.50
2023-05-08T12:13:54.485Z,1.80
2023-05-08T12:16:23.053Z,2.00
2023-05-08T12:18:51.279Z,2.10
2023-05-08T12:21:18.500Z,4.50
2023-05-08T12:23:45.389Z,3.50
2023-05-08T12:26:12.797Z,2.50
2023-05-08T12:28:41.044Z,9.50
2023-05-08T12:31:08.374Z,3.20
2023-05-08T12:33:35.541Z,1.90
2023-05-08T12:36:02.512Z,1.60
2023-05-08T12:38:29.939Z,2.10
2023-05-08T12:40:56.665Z,2.70
2023-05-08T12:43:34.002Z,2.80
2023-05-08T12:46:01.015Z,5.20
2023-05-08T12:48:28.725Z,5.60
2023-05-08T12:50:55.550Z,2.40
2023-05-08T12:53:22.859Z,2.40
2023-05-08T12:55:54.501Z,2.60
2023-05-08T12:58:24.871Z,1.80
2023-05-08T13:00:52.145Z,4.10
2023-05-08T13:03:27.441Z,5.80
2023-05-08T13:05:55.977Z,6.00
2023-05-08T13:08:35.178Z,3.20
2023-05-08T13:11:02.731Z,5.60
2023-05-08T13:13:38.554Z,5.50
2023-05-08T13:18:33.132Z,4.80
2023-05-08T13:21:01.497Z,2.50
2023-05-08T13:23:28.273Z,2.00
2023-05-08T13:25:55.498Z,3.80
2023-05-08T13:28:22.186Z,4.70
2023-05-08T13:30:48.887Z,3.70
2023-05-08T13:33:15.670Z,4.10
2023-05-08T13:35:42.402Z,1.50
2023-05-08T13:38:09.149Z,1.60
2023-05-08T13:40:36.114Z,2.50
2023-05-08T13:43:02.879Z,3.90
2023-05-08T13:45:29.746Z,2.60
2023-05-08T13:47:56.609Z,2.70
2023-05-08T13:50:23.585Z,1.60
2023-05-08T13:52:53.105Z,3.80
2023-05-08T13:55:22.908Z,4.00
2023-05-08T13:57:49.992Z,2.10
2023-05-08T14:00:17.110Z,1.80
2023-05-08T14:02:43.955Z,3.30
2023-05-08T14:05:10.971Z,1.40
2023-05-08T14:07:37.963Z,2.70
2023-05-08T14:10:05.007Z,4.10
2023-05-08T14:12:35.961Z,2.00
2023-05-08T14:15:06.270Z,2.90
2023-05-08T14:17:33.123Z,2.80
2023-05-08T14:19:59.970Z,3.30
2023-05-08T14:22:26.741Z,3.20
2023-05-08T14:24:53.541Z,1.30
2023-05-08T14:27:20.565Z,2.40
2023-05-08T14:29:47.520Z,4.10
2023-05-08T14:32:14.275Z,2.90
2023-05-08T14:34:41.118Z,4.30
2023-05-08T14:37:07.843Z,1.70
2023-05-08T14:39:34.971Z,1.90
2023-05-08T14:42:20.723Z,1.80
2023-05-08T14:44:48.826Z,3.30
2023-05-08T14:47:15.725Z,3.40
2023-05-08T14:49:42.437Z,1.70
2023-05-08T14:52:09.250Z,1.30
2023-05-08T14:54:36.311Z,2.00
2023-05-08T14:57:03.261Z,8.20
2023-05-08T14:59:30.032Z,4.10
2023-05-08T15:01:56.858Z,1.50
2023-05-08T15:04:23.700Z,2.20
2023-05-08T15:06:50.534Z,2.70
2023-05-08T15:09:17.381Z,5.40
2023-05-08T15:11:44.459Z,3.50
2023-05-08T15:14:11.300Z,5.10
2023-05-08T15:16:38.217Z,4.40
2023-05-08T15:19:04.968Z,4.10
2023-05-08T15:21:31.708Z,4.70
2023-05-08T15:23:58.531Z,3.70
2023-05-08T15:26:25.663Z,5.70
2023-05-08T15:28:52.368Z,9.10
2023-05-08T15:31:19.142Z,2.20
2023-05-08T15:33:47.719Z,1.90
2023-05-08T15:36:14.635Z,4.70
2023-05-08T15:38:41.622Z,3.10
2023-05-08T15:41:12.070Z,3.90
2023-05-08T15:43:40.673Z,5.10
2023-05-08T15:46:07.642Z,2.50
2023-05-08T15:48:34.532Z,4.30
2023-05-08T15:51:01.353Z,7.20
2023-05-08T15:53:28.252Z,3.10
2023-05-08T15:55:55.745Z,4.40
2023-05-08T15:58:22.933Z,4.50
2023-05-08T16:00:49.697Z,3.30
2023-05-08T16:03:16.561Z,7.30
2023-05-08T16:05:43.542Z,4.40
2023-05-08T16:08:12.835Z,6.20
2023-05-08T16:10:40.552Z,7.20
2023-05-08T16:13:07.927Z,4.00
2023-05-08T16:15:34.755Z,2.30
2023-05-08T16:18:02.502Z,2.30
2023-05-08T16:20:29.451Z,3.70
2023-05-08T16:22:56.307Z,2.60
2023-05-08T16:25:23.518Z,3.30
2023-05-08T16:27:50.405Z,2.10
2023-05-08T16:30:17.944Z,2.90
2023-05-08T16:32:46.241Z,1.70
2023-05-08T16:35:14.515Z,4.80
2023-05-08T16:37:42.003Z,1.50
2023-05-08T16:40:09.365Z,1.90
2023-05-08T16:42:37.187Z,2.40
2023-05-08T16:45:04.925Z,3.70
2023-05-08T16:47:32.130Z,1.90
2023-05-08T16:49:59.602Z,3.70
2023-05-08T16:52:27.054Z,2.00
2023-05-08T16:54:53.853Z,2.30
2023-05-08T16:57:20.590Z,7.70
2023-05-08T16:59:47.286Z,3.90
2023-05-08T17:02:18.684Z,5.20
2023-05-08T17:04:47.239Z,3.20
2023-05-08T17:07:14.796Z,3.00
2023-05-08T17:09:41.767Z,1.80
2023-05-08T17:12:08.848Z,3.30
2023-05-08T17:14:36.050Z,3.90
2023-05-08T17:17:02.814Z,2.40
2023-05-08T17:19:29.622Z,2.40
2023-05-08T17:21:58.221Z,2.70
2023-05-08T17:24:26.437Z,3.40
2023-05-08T17:26:53.166Z,3.80
2023-05-08T17:29:20.328Z,4.20
2023-05-08T17:31:47.201Z,5.20
2023-05-08T17:34:14.341Z,8.50
2023-05-08T17:36:41.093Z,8.10
2023-05-08T17:39:07.906Z,9.20
2023-05-08T17:41:34.786Z,9.20
2023-05-08T17:44:01.588Z,6.10
2023-05-08T17:46:28.290Z,8.00
2023-05-08T17:48:55.429Z,6.60
2023-05-08T17:51:22.355Z,5.90
2023-05-08T17:53:49.238Z,6.30
2023-05-08T17:56:20.529Z,5.40
2023-05-08T17:58:47.460Z,8.40
2023-05-08T18:01:14.321Z,4.30
2023-05-08T18:03:41.916Z,5.10
2023-05-08T18:06:08.668Z,3.60
2023-05-08T18:08:35.441Z,2.90
2023-05-08T18:11:02.441Z,5.70
2023-05-08T18:13:29.276Z,10.10
2023-05-08T18:15:56.191Z,5.80
2023-05-08T18:18:23.151Z,5.30
2023-05-08T18:20:49.991Z,4.30
2023-05-08T18:23:17.036Z,5.10
2023-05-08T18:25:43.940Z,3.80
2023-05-08T18:28:10.846Z,5.20
2023-05-08T18:30:40.131Z,9.40
2023-05-08T18:33:07.044Z,6.40
2023-05-08T18:35:33.779Z,8.40
2023-05-08T18:38:00.499Z,6.70
2023-05-08T18:40:27.273Z,6.30
2023-05-08T18:42:54.047Z,5.80
2023-05-08T18:45:21.177Z,7.40
2023-05-08T18:47:48.371Z,4.20
2023-05-08T18:50:15.783Z,5.60
2023-05-08T18:52:43.445Z,3.50
2023-05-08T18:55:10.238Z,7.50
2023-05-08T18:57:37.015Z,4.50
2023-05-08T19:00:04.793Z,5.90
2023-05-08T19:02:31.619Z,8.00
2023-05-08T19:04:58.915Z,8.30
2023-05-08T19:07:25.829Z,14.50
2023-05-08T19:09:54.146Z,13.20
2023-05-08T19:12:21.075Z,9.80
2023-05-08T19:14:49.075Z,6.70
2023-05-08T19:17:16.212Z,12.40
2023-05-08T19:19:43.111Z,11.80
2023-05-08T19:22:09.911Z,9.20
2023-05-08T19:24:36.864Z,6.90
2023-05-08T19:27:04.106Z,6.10
2023-05-08T19:29:31.323Z,5.90
2023-05-08T19:31:59.087Z,6.90
2023-05-08T19:34:26.080Z,5.60
2023-05-08T19:36:53.126Z,4.40
2023-05-08T19:39:19.907Z,9.30
2023-05-08T19:41:46.629Z,5.40
2023-05-08T19:44:13.399Z,10.90
2023-05-08T19:46:40.184Z,12.20
2023-05-08T19:49:06.886Z,8.60
2023-05-08T19:51:33.766Z,7.70
2023-05-08T19:54:01.300Z,12.10
2023-05-08T19:56:28.155Z,11.10
2023-05-08T19:58:55.147Z,14.10
2023-05-08T20:01:22.123Z,14.30
2023-05-08T20:03:49.083Z,13.50
2023-05-08T20:06:15.856Z,12.30
2023-05-08T20:08:42.677Z,11.60
2023-05-08T20:11:11.717Z,6.10
2023-05-08T20:13:39.202Z,6.50
2023-05-08T20:16:06.227Z,9.10
2023-05-08T20:18:34.082Z,9.30
2023-05-08T20:21:00.784Z,12.60
2023-05-08T20:23:27.744Z,8.50
2023-05-08T20:25:54.644Z,8.70
2023-05-08T20:28:25.125Z,9.70
2023-05-08T20:30:52.715Z,9.30
2023-05-08T20:33:20.678Z,8.70
2023-05-08T20:35:47.814Z,8.40
2023-05-08T20:38:16.114Z,6.70
2023-05-08T20:40:42.954Z,9.40
2023-05-08T20:43:10.707Z,12.60
2023-05-08T20:45:37.919Z,7.20
2023-05-08T20:48:05.040Z,11.20
2023-05-08T20:50:31.820Z,14.30
2023-05-08T20:52:58.651Z,20.40
2023-05-08T20:55:25.400Z,14.40
2023-05-08T20:57:52.130Z,10.90
2023-05-08T21:00:19.249Z,10.60
2023-05-08T21:02:46.035Z,12.20
2023-05-08T21:05:13.295Z,9.20
2023-05-08T21:07:42.132Z,12.30
2023-05-08T21:10:09.305Z,10.90
2023-05-08T21:12:36.538Z,14.80
2023-05-08T21:15:03.791Z,14.30
2023-05-08T21:17:30.859Z,9.00
2023-05-08T21:19:57.706Z,9.50
2023-05-08T21:22:24.801Z,16.70
2023-05-08T21:24:51.655Z,14.30
2023-05-08T21:27:18.423Z,13.70
2023-05-08T21:29:45.143Z,22.00
2023-05-08T21:32:11.838Z,18.80
2023-05-08T21:34:38.501Z,23.70
2023-05-08T21:37:31.565Z,18.20
2023-05-08T21:39:58.373Z,15.30
2023-05-08T21:42:25.071Z,19.20
2023-05-08T21:44:54.569Z,11.10
2023-05-08T21:47:22.473Z,17.80
2023-05-08T21:49:49.319Z,17.60
2023-05-08T21:52:18.386Z,24.50
2023-05-08T21:54:45.213Z,25.20
2023-05-08T21:57:11.900Z,21.20
2023-05-08T21:59:38.629Z,24.50
2023-05-08T22:02:05.782Z,39.70
2023-05-08T22:04:32.531Z,39.30
2023-05-08T22:06:59.240Z,20.60
2023-05-08T22:09:25.955Z,22.70
2023-05-08T22:11:52.701Z,25.60
2023-05-08T22:14:19.629Z,23.30
2023-05-08T22:16:46.405Z,20.50
2023-05-08T22:19:13.122Z,18.10
2023-05-08T22:21:40.208Z,20.40
2023-05-08T22:24:07.372Z,16.40
2023-05-08T22:26:34.097Z,16.70
2023-05-08T22:29:00.846Z,25.90
2023-05-08T22:31:27.618Z,16.50
2023-05-08T22:33:54.388Z,16.10
2023-05-08T22:36:23.885Z,16.90
2023-05-08T22:38:50.692Z,13.00
2023-05-08T22:41:17.371Z,12.80
2023-05-08T22:43:44.795Z,15.60
2023-05-08T22:46:11.802Z,13.50
2023-05-08T22:48:38.729Z,13.10
2023-05-08T22:51:06.604Z,13.20
2023-05-08T22:53:33.297Z,16.40
2023-05-08T22:55:59.989Z,12.20
2023-05-08T22:58:27.353Z,14.80
2023-05-08T23:00:54.193Z,17.10
2023-05-08T23:03:21.033Z,11.60
2023-05-08T23:05:48.896Z,10.90
2023-05-08T23:08:15.701Z,16.50
2023-05-08T23:10:42.430Z,11.90
2023-05-08T23:13:09.269Z,12.10
2023-05-08T23:15:36.659Z,14.20
2023-05-08T23:18:03.380Z,13.30
2023-05-08T23:20:30.216Z,11.00
2023-05-08T23:22:57.062Z,10.70
2023-05-08T23:25:23.931Z,11.30
2023-05-08T23:27:50.653Z,11.50
2023-05-08T23:30:17.633Z,11.10
2023-05-08T23:32:44.601Z,11.90
2023-05-08T23:35:11.598Z,12.10
2023-05-08T23:37:38.456Z,10.80
2023-05-08T23:40:06.882Z,8.90
2023-05-08T23:42:33.619Z,11.70
2023-05-08T23:45:00.488Z,11.50
2023-05-08T23:47:27.262Z,11.70
2023-05-08T23:49:54.054Z,15.50
2023-05-08T23:52:20.926Z,11.60
2023-05-08T23:54:47.653Z,12.20
2023-05-08T23:57:14.379Z,11.10
2023-05-08T23:59:41.475Z,10.00
